Terminal Aerodrome Forecast
Issued by NWS

Home | Current Version | Previous Version | Text Only | Print | Product List | Glossary On
Versions: 1 2 3 4 5 6 7 8 9 10 11 12 13
000
FTUS45 KTFX 220500
TAFLWT
TAF
KLWT 220520Z 2206/2306 29018G28KT P6SM VCSH SCT040 OVC070
     FM221800 30015G25KT P6SM VCSH BKN050 PROB30 2219/2301 3SM -SHSN
      BKN030=

USA.gov is the U.S. government's official web portal to all federal, state and local government web resources and services.